Itapuranga, Brazil
Current Conditions -  °F | °C
As of 10:00 AM on Friday 19 Dec 2014 (Local Time) from SBAN Reporting Station
Broken Clouds Broken Clouds  
Wind Chill: 75°   Ceiling: 10000
Heat Index: 75°   Visibility: 6mi
Dew Point: 66°   Wind: 5mph
Humidity: 73%   Direction: 360°N
Pressure: 30.03"   Gusts: NA
Location:  15.56°S, 49.95°W
Report Text: SBAN 191200Z 36004KT 9999 FEW030 BKN100 24/19 Q1017
Loading
Personal Weather Stations






























Interactive Weather Map New forecast layout! Learn more

10-Day Weather Forecast

Advertisements
Track Severe Weather on mobile